Aviation Digital Data Service (ADDS)

Output produced by METARs form (2251 UTC 01 March 2021)
found at http://aviationweather.gov/metar/data/
 
TAF EPDA 012000Z 0121/0206 25008KT 5000 BR BKN010 
     TEMPO 0121/0206 2000 BR BKN005 
     PROB30 
     TEMPO 0121/0206 0600 FG BKN002